sensor_id;sensor_type;location;lat;lon;timestamp;temperature;humidity
29687;DHT22;16599;47.078;15.536;2022-08-24T00:00:15;13.30;99.90
29687;DHT22;16599;47.078;15.536;2022-08-24T00:02:43;13.20;99.90
29687;DHT22;16599;47.078;15.536;2022-08-24T00:05:10;13.20;99.90
29687;DHT22;16599;47.078;15.536;2022-08-24T00:07:40;13.10;99.90
29687;DHT22;16599;47.078;15.536;2022-08-24T00:10:10;13.20;99.90
29687;DHT22;16599;47.078;15.536;2022-08-24T00:12:37;13.20;99.90
29687;DHT22;16599;47.078;15.536;2022-08-24T00:15:05;13.20;99.90
29687;DHT22;16599;47.078;15.536;2022-08-24T00:17:32;13.10;99.90
29687;DHT22;16599;47.078;15.536;2022-08-24T00:20:00;13.20;99.90
29687;DHT22;16599;47.078;15.536;2022-08-24T00:22:27;13.10;99.90
29687;DHT22;16599;47.078;15.536;2022-08-24T00:24:54;13.00;99.90
29687;DHT22;16599;47.078;15.536;2022-08-24T00:27:22;13.10;99.90
29687;DHT22;16599;47.078;15.536;2022-08-24T00:29:49;13.10;99.90
29687;DHT22;16599;47.078;15.536;2022-08-24T00:32:16;13.10;99.90
29687;DHT22;16599;47.078;15.536;2022-08-24T00:34:44;13.00;99.90
29687;DHT22;16599;47.078;15.536;2022-08-24T00:37:26;13.10;99.90
29687;DHT22;16599;47.078;15.536;2022-08-24T00:39:55;13.10;99.90
29687;DHT22;16599;47.078;15.536;2022-08-24T00:42:23;13.10;99.90
29687;DHT22;16599;47.078;15.536;2022-08-24T00:44:50;13.10;99.90
29687;DHT22;16599;47.078;15.536;2022-08-24T00:47:23;13.10;99.90
29687;DHT22;16599;47.078;15.536;2022-08-24T00:49:59;13.20;99.90
29687;DHT22;16599;47.078;15.536;2022-08-24T00:52:38;13.20;99.90
29687;DHT22;16599;47.078;15.536;2022-08-24T00:55:31;13.20;99.90
29687;DHT22;16599;47.078;15.536;2022-08-24T00:58:01;12.90;99.90
29687;DHT22;16599;47.078;15.536;2022-08-24T01:00:31;12.80;99.90
29687;DHT22;16599;47.078;15.536;2022-08-24T01:03:03;12.90;99.90
29687;DHT22;16599;47.078;15.536;2022-08-24T01:05:31;12.90;99.90
29687;DHT22;16599;47.078;15.536;2022-08-24T01:08:00;12.80;99.90
29687;DHT22;16599;47.078;15.536;2022-08-24T01:10:32;12.90;99.90
29687;DHT22;16599;47.078;15.536;2022-08-24T01:13:03;13.00;99.90
29687;DHT22;16599;47.078;15.536;2022-08-24T01:15:40;13.00;99.90
29687;DHT22;16599;47.078;15.536;2022-08-24T01:18:11;13.00;99.90
29687;DHT22;16599;47.078;15.536;2022-08-24T01:21:23;12.90;99.90
29687;DHT22;16599;47.078;15.536;2022-08-24T01:23:55;12.90;99.90
29687;DHT22;16599;47.078;15.536;2022-08-24T01:29:07;13.00;99.90
29687;DHT22;16599;47.078;15.536;2022-08-24T01:31:35;12.80;99.90
29687;DHT22;16599;47.078;15.536;2022-08-24T01:34:02;12.80;99.90
29687;DHT22;16599;47.078;15.536;2022-08-24T01:36:33;12.90;99.90
29687;DHT22;16599;47.078;15.536;2022-08-24T01:39:15;12.90;99.90
29687;DHT22;16599;47.078;15.536;2022-08-24T01:41:42;12.80;99.90
29687;DHT22;16599;47.078;15.536;2022-08-24T01:44:09;12.70;99.90
29687;DHT22;16599;47.078;15.536;2022-08-24T01:46:36;12.60;99.90
29687;DHT22;16599;47.078;15.536;2022-08-24T01:49:03;12.60;99.90
29687;DHT22;16599;47.078;15.536;2022-08-24T01:51:32;12.50;99.90
29687;DHT22;16599;47.078;15.536;2022-08-24T01:54:00;12.50;99.90
29687;DHT22;16599;47.078;15.536;2022-08-24T01:56:32;12.60;99.90
29687;DHT22;16599;47.078;15.536;2022-08-24T01:58:59;12.80;99.90
29687;DHT22;16599;47.078;15.536;2022-08-24T02:01:29;12.60;99.90
29687;DHT22;16599;47.078;15.536;2022-08-24T02:04:00;12.50;99.90
29687;DHT22;16599;47.078;15.536;2022-08-24T02:06:28;12.60;99.90
29687;DHT22;16599;47.078;15.536;2022-08-24T02:08:55;12.70;99.90
29687;DHT22;16599;47.078;15.536;2022-08-24T02:11:22;12.60;99.90
29687;DHT22;16599;47.078;15.536;2022-08-24T02:13:49;12.70;99.90
29687;DHT22;16599;47.078;15.536;2022-08-24T02:16:17;12.70;99.90
29687;DHT22;16599;47.078;15.536;2022-08-24T02:18:45;12.60;99.90
29687;DHT22;16599;47.078;15.536;2022-08-24T02:21:12;12.60;99.90
29687;DHT22;16599;47.078;15.536;2022-08-24T02:23:41;12.70;99.90
29687;DHT22;16599;47.078;15.536;2022-08-24T02:26:09;12.50;99.90
29687;DHT22;16599;47.078;15.536;2022-08-24T02:28:36;12.50;99.90
29687;DHT22;16599;47.078;15.536;2022-08-24T02:31:05;12.60;99.90
29687;DHT22;16599;47.078;15.536;2022-08-24T02:33:34;12.50;99.90
29687;DHT22;16599;47.078;15.536;2022-08-24T02:36:02;12.50;99.90
29687;DHT22;16599;47.078;15.536;2022-08-24T02:38:32;12.60;99.90
29687;DHT22;16599;47.078;15.536;2022-08-24T02:40:59;12.50;99.90
29687;DHT22;16599;47.078;15.536;2022-08-24T02:43:26;12.60;99.90
29687;DHT22;16599;47.078;15.536;2022-08-24T02:45:53;12.60;99.90
29687;DHT22;16599;47.078;15.536;2022-08-24T02:48:21;12.60;99.90
29687;DHT22;16599;47.078;15.536;2022-08-24T02:50:49;12.60;99.90
29687;DHT22;16599;47.078;15.536;2022-08-24T02:53:18;12.50;99.90
29687;DHT22;16599;47.078;15.536;2022-08-24T02:55:46;12.50;99.90
29687;DHT22;16599;47.078;15.536;2022-08-24T02:58:14;12.50;99.90
29687;DHT22;16599;47.078;15.536;2022-08-24T03:00:45;12.70;99.90
29687;DHT22;16599;47.078;15.536;2022-08-24T03:03:13;12.70;99.90
29687;DHT22;16599;47.078;15.536;2022-08-24T03:05:40;12.50;99.90
29687;DHT22;16599;47.078;15.536;2022-08-24T03:08:07;12.60;99.90
29687;DHT22;16599;47.078;15.536;2022-08-24T03:10:34;12.60;99.90
29687;DHT22;16599;47.078;15.536;2022-08-24T03:13:00;12.60;99.90
29687;DHT22;16599;47.078;15.536;2022-08-24T03:15:28;12.60;99.90
29687;DHT22;16599;47.078;15.536;2022-08-24T03:17:56;12.50;99.90
29687;DHT22;16599;47.078;15.536;2022-08-24T03:20:23;12.40;99.90
29687;DHT22;16599;47.078;15.536;2022-08-24T03:22:51;12.40;99.90
29687;DHT22;16599;47.078;15.536;2022-08-24T03:25:19;12.50;99.90
29687;DHT22;16599;47.078;15.536;2022-08-24T03:27:47;12.50;99.90
29687;DHT22;16599;47.078;15.536;2022-08-24T03:30:15;12.60;99.90
29687;DHT22;16599;47.078;15.536;2022-08-24T03:32:43;12.60;99.90
29687;DHT22;16599;47.078;15.536;2022-08-24T03:35:11;12.60;99.90
29687;DHT22;16599;47.078;15.536;2022-08-24T03:37:38;12.50;99.90
29687;DHT22;16599;47.078;15.536;2022-08-24T03:40:07;12.50;99.90
29687;DHT22;16599;47.078;15.536;2022-08-24T03:42:49;12.40;99.90
29687;DHT22;16599;47.078;15.536;2022-08-24T03:45:17;12.50;99.90
29687;DHT22;16599;47.078;15.536;2022-08-24T03:47:44;12.50;99.90
29687;DHT22;16599;47.078;15.536;2022-08-24T03:50:11;12.50;99.90
29687;DHT22;16599;47.078;15.536;2022-08-24T03:52:37;12.40;99.90
29687;DHT22;16599;47.078;15.536;2022-08-24T03:55:05;12.40;99.90
29687;DHT22;16599;47.078;15.536;2022-08-24T03:57:32;12.50;99.90
29687;DHT22;16599;47.078;15.536;2022-08-24T04:00:00;12.50;99.90
29687;DHT22;16599;47.078;15.536;2022-08-24T04:02:26;12.50;99.90
29687;DHT22;16599;47.078;15.536;2022-08-24T04:04:58;12.60;99.90
29687;DHT22;16599;47.078;15.536;2022-08-24T04:07:25;12.60;99.90
29687;DHT22;16599;47.078;15.536;2022-08-24T04:09:53;12.50;99.90
29687;DHT22;16599;47.078;15.536;2022-08-24T04:12:19;12.60;99.90
29687;DHT22;16599;47.078;15.536;2022-08-24T04:14:52;12.60;99.90
29687;DHT22;16599;47.078;15.536;2022-08-24T04:17:21;12.70;99.90
29687;DHT22;16599;47.078;15.536;2022-08-24T04:19:48;12.50;99.90
29687;DHT22;16599;47.078;15.536;2022-08-24T04:22:29;12.50;99.90
29687;DHT22;16599;47.078;15.536;2022-08-24T04:24:56;12.50;99.90
29687;DHT22;16599;47.078;15.536;2022-08-24T04:27:23;12.50;99.90
29687;DHT22;16599;47.078;15.536;2022-08-24T04:29:50;12.50;99.90
29687;DHT22;16599;47.078;15.536;2022-08-24T04:32:17;12.50;99.90
29687;DHT22;16599;47.078;15.536;2022-08-24T04:34:45;12.40;99.90
29687;DHT22;16599;47.078;15.536;2022-08-24T04:37:12;12.50;99.90
29687;DHT22;16599;47.078;15.536;2022-08-24T04:39:40;12.60;99.90
29687;DHT22;16599;47.078;15.536;2022-08-24T04:42:08;12.60;99.90
29687;DHT22;16599;47.078;15.536;2022-08-24T04:48:25;12.50;99.90
29687;DHT22;16599;47.078;15.536;2022-08-24T04:54:39;12.70;99.90
29687;DHT22;16599;47.078;15.536;2022-08-24T04:57:06;12.60;99.90
29687;DHT22;16599;47.078;15.536;2022-08-24T04:59:32;12.80;99.90
29687;DHT22;16599;47.078;15.536;2022-08-24T05:01:59;12.80;99.90
29687;DHT22;16599;47.078;15.536;2022-08-24T05:04:26;12.90;99.90
29687;DHT22;16599;47.078;15.536;2022-08-24T05:06:55;13.00;99.90
29687;DHT22;16599;47.078;15.536;2022-08-24T05:09:21;12.90;99.90
29687;DHT22;16599;47.078;15.536;2022-08-24T05:11:48;13.00;99.90
29687;DHT22;16599;47.078;15.536;2022-08-24T05:14:16;13.10;99.90
29687;DHT22;16599;47.078;15.536;2022-08-24T05:16:43;13.10;99.90
29687;DHT22;16599;47.078;15.536;2022-08-24T05:19:18;13.20;99.90
29687;DHT22;16599;47.078;15.536;2022-08-24T05:21:45;13.20;99.90
29687;DHT22;16599;47.078;15.536;2022-08-24T05:24:12;13.20;99.90
29687;DHT22;16599;47.078;15.536;2022-08-24T05:26:39;13.20;99.90
29687;DHT22;16599;47.078;15.536;2022-08-24T05:29:07;13.30;99.90
29687;DHT22;16599;47.078;15.536;2022-08-24T05:31:34;13.30;99.90
29687;DHT22;16599;47.078;15.536;2022-08-24T05:34:03;13.40;99.90
29687;DHT22;16599;47.078;15.536;2022-08-24T05:36:33;13.40;99.90
29687;DHT22;16599;47.078;15.536;2022-08-24T05:39:02;13.50;99.90
29687;DHT22;16599;47.078;15.536;2022-08-24T05:41:36;13.60;99.90
29687;DHT22;16599;47.078;15.536;2022-08-24T05:44:03;13.60;99.90
29687;DHT22;16599;47.078;15.536;2022-08-24T05:46:32;13.70;99.90
29687;DHT22;16599;47.078;15.536;2022-08-24T05:48:59;13.80;99.90
29687;DHT22;16599;47.078;15.536;2022-08-24T05:51:27;13.80;99.90
29687;DHT22;16599;47.078;15.536;2022-08-24T05:53:56;13.90;99.90
29687;DHT22;16599;47.078;15.536;2022-08-24T05:56:23;13.90;99.90
29687;DHT22;16599;47.078;15.536;2022-08-24T05:58:54;14.00;99.90
29687;DHT22;16599;47.078;15.536;2022-08-24T06:01:25;14.00;99.90
29687;DHT22;16599;47.078;15.536;2022-08-24T06:03:53;14.10;99.90
29687;DHT22;16599;47.078;15.536;2022-08-24T06:06:21;14.20;99.90
29687;DHT22;16599;47.078;15.536;2022-08-24T06:08:51;14.20;99.90
29687;DHT22;16599;47.078;15.536;2022-08-24T06:11:27;14.20;99.90
29687;DHT22;16599;47.078;15.536;2022-08-24T06:14:02;14.30;99.90
29687;DHT22;16599;47.078;15.536;2022-08-24T06:16:35;14.50;99.90
29687;DHT22;16599;47.078;15.536;2022-08-24T06:19:03;14.60;99.90
29687;DHT22;16599;47.078;15.536;2022-08-24T06:21:30;14.60;99.90
29687;DHT22;16599;47.078;15.536;2022-08-24T06:23:59;14.60;99.90
29687;DHT22;16599;47.078;15.536;2022-08-24T06:26:27;14.60;99.90
29687;DHT22;16599;47.078;15.536;2022-08-24T06:29:17;14.90;99.90
29687;DHT22;16599;47.078;15.536;2022-08-24T06:31:46;15.20;99.90
29687;DHT22;16599;47.078;15.536;2022-08-24T06:34:20;15.40;99.90
29687;DHT22;16599;47.078;15.536;2022-08-24T06:36:47;15.50;99.90
29687;DHT22;16599;47.078;15.536;2022-08-24T06:39:14;15.40;99.90
29687;DHT22;16599;47.078;15.536;2022-08-24T06:41:42;15.40;99.90
29687;DHT22;16599;47.078;15.536;2022-08-24T06:44:09;15.30;99.90
29687;DHT22;16599;47.078;15.536;2022-08-24T06:46:36;15.40;99.90
29687;DHT22;16599;47.078;15.536;2022-08-24T06:49:03;15.40;99.90
29687;DHT22;16599;47.078;15.536;2022-08-24T06:51:31;15.40;99.90
29687;DHT22;16599;47.078;15.536;2022-08-24T06:53:58;15.50;99.90
29687;DHT22;16599;47.078;15.536;2022-08-24T06:56:25;15.60;99.90
29687;DHT22;16599;47.078;15.536;2022-08-24T06:58:52;15.70;99.90
29687;DHT22;16599;47.078;15.536;2022-08-24T07:01:24;15.80;99.90
29687;DHT22;16599;47.078;15.536;2022-08-24T07:03:52;16.00;99.90
29687;DHT22;16599;47.078;15.536;2022-08-24T07:06:21;16.10;99.90
29687;DHT22;16599;47.078;15.536;2022-08-24T07:08:48;16.10;99.90
29687;DHT22;16599;47.078;15.536;2022-08-24T07:11:16;16.20;99.90
29687;DHT22;16599;47.078;15.536;2022-08-24T07:13:47;16.30;99.90
29687;DHT22;16599;47.078;15.536;2022-08-24T07:16:16;16.40;99.90
29687;DHT22;16599;47.078;15.536;2022-08-24T07:18:43;16.60;99.90
29687;DHT22;16599;47.078;15.536;2022-08-24T07:21:16;16.70;99.90
29687;DHT22;16599;47.078;15.536;2022-08-24T07:23:46;16.90;99.90
29687;DHT22;16599;47.078;15.536;2022-08-24T07:26:18;17.10;99.90
29687;DHT22;16599;47.078;15.536;2022-08-24T07:28:54;17.30;99.90
29687;DHT22;16599;47.078;15.536;2022-08-24T07:31:26;17.40;99.90
29687;DHT22;16599;47.078;15.536;2022-08-24T07:34:00;17.70;99.90
29687;DHT22;16599;47.078;15.536;2022-08-24T07:36:27;17.80;99.90
29687;DHT22;16599;47.078;15.536;2022-08-24T07:38:54;17.90;99.90
29687;DHT22;16599;47.078;15.536;2022-08-24T07:41:21;18.20;99.90
29687;DHT22;16599;47.078;15.536;2022-08-24T07:44:09;18.40;99.90
29687;DHT22;16599;47.078;15.536;2022-08-24T07:46:39;18.60;99.90
29687;DHT22;16599;47.078;15.536;2022-08-24T07:49:07;18.90;99.90
29687;DHT22;16599;47.078;15.536;2022-08-24T07:51:54;19.10;99.90
29687;DHT22;16599;47.078;15.536;2022-08-24T07:54:21;19.30;99.90
29687;DHT22;16599;47.078;15.536;2022-08-24T07:56:48;19.60;99.90
29687;DHT22;16599;47.078;15.536;2022-08-24T07:59:16;19.80;99.90
29687;DHT22;16599;47.078;15.536;2022-08-24T08:01:43;19.90;99.90
29687;DHT22;16599;47.078;15.536;2022-08-24T08:04:10;19.90;99.90
29687;DHT22;16599;47.078;15.536;2022-08-24T08:06:37;20.00;99.90
29687;DHT22;16599;47.078;15.536;2022-08-24T08:09:04;20.00;99.90
29687;DHT22;16599;47.078;15.536;2022-08-24T08:11:32;19.90;99.90
29687;DHT22;16599;47.078;15.536;2022-08-24T08:13:59;19.90;99.90
29687;DHT22;16599;47.078;15.536;2022-08-24T08:16:26;19.90;99.90
29687;DHT22;16599;47.078;15.536;2022-08-24T08:18:53;19.80;99.90
29687;DHT22;16599;47.078;15.536;2022-08-24T08:21:43;19.70;99.90
29687;DHT22;16599;47.078;15.536;2022-08-24T08:24:29;19.60;99.90
29687;DHT22;16599;47.078;15.536;2022-08-24T08:26:56;19.60;99.90
29687;DHT22;16599;47.078;15.536;2022-08-24T08:33:13;19.70;99.90
29687;DHT22;16599;47.078;15.536;2022-08-24T08:35:40;20.00;99.90
29687;DHT22;16599;47.078;15.536;2022-08-24T08:38:07;20.30;99.90
29687;DHT22;16599;47.078;15.536;2022-08-24T08:43:42;21.20;99.90
29687;DHT22;16599;47.078;15.536;2022-08-24T08:54:44;22.10;99.60
29687;DHT22;16599;47.078;15.536;2022-08-24T08:57:34;22.10;98.80
29687;DHT22;16599;47.078;15.536;2022-08-24T09:00:23;22.10;99.30
29687;DHT22;16599;47.078;15.536;2022-08-24T09:16:52;22.80;94.20
29687;DHT22;16599;47.078;15.536;2022-08-24T09:22:20;23.00;93.70
29687;DHT22;16599;47.078;15.536;2022-08-24T09:38:21;23.40;91.70
29687;DHT22;16599;47.078;15.536;2022-08-24T09:49:48;23.30;89.40
29687;DHT22;16599;47.078;15.536;2022-08-24T09:52:35;23.40;90.90
29687;DHT22;16599;47.078;15.536;2022-08-24T10:15:13;23.90;82.90
29687;DHT22;16599;47.078;15.536;2022-08-24T10:18:19;23.70;83.20
29687;DHT22;16599;47.078;15.536;2022-08-24T10:23:48;23.80;84.10
29687;DHT22;16599;47.078;15.536;2022-08-24T10:26:31;24.20;86.70
29687;DHT22;16599;47.078;15.536;2022-08-24T10:35:36;24.10;82.50
29687;DHT22;16599;47.078;15.536;2022-08-24T10:41:28;24.40;85.10
29687;DHT22;16599;47.078;15.536;2022-08-24T10:47:22;24.50;81.60
29687;DHT22;16599;47.078;15.536;2022-08-24T10:52:45;24.70;81.00
29687;DHT22;16599;47.078;15.536;2022-08-24T10:55:19;24.60;79.90
29687;DHT22;16599;47.078;15.536;2022-08-24T11:00:19;24.50;87.30
29687;DHT22;16599;47.078;15.536;2022-08-24T11:02:52;24.70;79.80
29687;DHT22;16599;47.078;15.536;2022-08-24T11:05:37;24.70;79.30
29687;DHT22;16599;47.078;15.536;2022-08-24T11:08:06;24.70;75.20
29687;DHT22;16599;47.078;15.536;2022-08-24T11:10:38;24.70;77.50
29687;DHT22;16599;47.078;15.536;2022-08-24T11:13:23;24.80;79.50
29687;DHT22;16599;47.078;15.536;2022-08-24T11:15:56;25.20;76.90
29687;DHT22;16599;47.078;15.536;2022-08-24T11:18:23;25.40;75.00
29687;DHT22;16599;47.078;15.536;2022-08-24T11:20:53;25.20;75.20
29687;DHT22;16599;47.078;15.536;2022-08-24T11:23:25;25.20;76.90
29687;DHT22;16599;47.078;15.536;2022-08-24T11:32:39;25.90;76.40
29687;DHT22;16599;47.078;15.536;2022-08-24T11:37:48;26.00;77.30
29687;DHT22;16599;47.078;15.536;2022-08-24T11:40:19;25.90;75.80
29687;DHT22;16599;47.078;15.536;2022-08-24T11:42:58;25.70;74.30
29687;DHT22;16599;47.078;15.536;2022-08-24T12:00:21;25.00;79.00
29687;DHT22;16599;47.078;15.536;2022-08-24T12:03:10;25.00;76.90
29687;DHT22;16599;47.078;15.536;2022-08-24T12:06:00;25.10;78.40
29687;DHT22;16599;47.078;15.536;2022-08-24T12:11:38;25.20;78.10
29687;DHT22;16599;47.078;15.536;2022-08-24T12:18:25;25.40;76.20
29687;DHT22;16599;47.078;15.536;2022-08-24T12:20:57;25.60;79.50
29687;DHT22;16599;47.078;15.536;2022-08-24T12:26:46;26.00;78.20
29687;DHT22;16599;47.078;15.536;2022-08-24T12:29:26;25.90;77.30
29687;DHT22;16599;47.078;15.536;2022-08-24T12:32:02;26.10;76.30
29687;DHT22;16599;47.078;15.536;2022-08-24T12:38:42;26.70;76.10
29687;DHT22;16599;47.078;15.536;2022-08-24T12:46:12;26.40;74.00
29687;DHT22;16599;47.078;15.536;2022-08-24T13:02:03;26.70;72.00
29687;DHT22;16599;47.078;15.536;2022-08-24T13:19:11;26.40;72.70
29687;DHT22;16599;47.078;15.536;2022-08-24T13:21:47;26.20;73.00
29687;DHT22;16599;47.078;15.536;2022-08-24T13:29:40;26.20;75.30
29687;DHT22;16599;47.078;15.536;2022-08-24T13:39:45;26.20;76.00
29687;DHT22;16599;47.078;15.536;2022-08-24T13:45:53;26.20;73.90
29687;DHT22;16599;47.078;15.536;2022-08-24T13:51:13;26.40;75.70
29687;DHT22;16599;47.078;15.536;2022-08-24T14:00:30;26.90;73.00
29687;DHT22;16599;47.078;15.536;2022-08-24T14:03:08;26.20;74.30
29687;DHT22;16599;47.078;15.536;2022-08-24T14:05:51;26.10;74.60
29687;DHT22;16599;47.078;15.536;2022-08-24T14:21:12;26.10;73.90
29687;DHT22;16599;47.078;15.536;2022-08-24T14:23:58;26.50;72.60
29687;DHT22;16599;47.078;15.536;2022-08-24T14:44:12;26.20;73.60
29687;DHT22;16599;47.078;15.536;2022-08-24T14:49:55;25.20;78.70
29687;DHT22;16599;47.078;15.536;2022-08-24T15:04:46;24.10;88.10
29687;DHT22;16599;47.078;15.536;2022-08-24T15:09:46;24.10;87.90
29687;DHT22;16599;47.078;15.536;2022-08-24T15:15:14;23.90;89.40
29687;DHT22;16599;47.078;15.536;2022-08-24T15:23:24;23.90;90.00
29687;DHT22;16599;47.078;15.536;2022-08-24T15:26:05;23.80;90.00
29687;DHT22;16599;47.078;15.536;2022-08-24T15:28:33;23.90;89.80
29687;DHT22;16599;47.078;15.536;2022-08-24T15:31:07;23.90;90.00
29687;DHT22;16599;47.078;15.536;2022-08-24T15:33:37;23.90;91.00
29687;DHT22;16599;47.078;15.536;2022-08-24T15:36:17;24.00;90.20
29687;DHT22;16599;47.078;15.536;2022-08-24T15:38:45;24.00;90.50
29687;DHT22;16599;47.078;15.536;2022-08-24T15:41:29;23.90;90.90
29687;DHT22;16599;47.078;15.536;2022-08-24T15:44:22;23.90;90.50
29687;DHT22;16599;47.078;15.536;2022-08-24T15:47:02;23.80;92.50
29687;DHT22;16599;47.078;15.536;2022-08-24T15:49:36;23.80;93.30
29687;DHT22;16599;47.078;15.536;2022-08-24T15:55:10;23.80;93.00
29687;DHT22;16599;47.078;15.536;2022-08-24T15:57:42;23.80;93.90
29687;DHT22;16599;47.078;15.536;2022-08-24T16:00:19;23.80;94.50
29687;DHT22;16599;47.078;15.536;2022-08-24T16:03:27;23.70;94.60
29687;DHT22;16599;47.078;15.536;2022-08-24T16:11:39;23.30;96.60
29687;DHT22;16599;47.078;15.536;2022-08-24T16:14:11;23.30;96.20
29687;DHT22;16599;47.078;15.536;2022-08-24T16:16:42;23.20;97.40
29687;DHT22;16599;47.078;15.536;2022-08-24T16:19:26;23.20;98.30
29687;DHT22;16599;47.078;15.536;2022-08-24T16:22:03;23.10;98.80
29687;DHT22;16599;47.078;15.536;2022-08-24T16:24:34;22.90;98.20
29687;DHT22;16599;47.078;15.536;2022-08-24T16:37:33;22.80;98.60
29687;DHT22;16599;47.078;15.536;2022-08-24T16:40:00;22.80;98.50
29687;DHT22;16599;47.078;15.536;2022-08-24T16:42:28;22.60;99.60
29687;DHT22;16599;47.078;15.536;2022-08-24T16:44:57;22.60;99.40
29687;DHT22;16599;47.078;15.536;2022-08-24T16:47:25;22.50;99.90
29687;DHT22;16599;47.078;15.536;2022-08-24T16:49:52;22.40;99.90
29687;DHT22;16599;47.078;15.536;2022-08-24T16:52:20;22.30;99.90
29687;DHT22;16599;47.078;15.536;2022-08-24T16:54:48;22.30;99.90
29687;DHT22;16599;47.078;15.536;2022-08-24T16:57:27;22.30;98.00
29687;DHT22;16599;47.078;15.536;2022-08-24T16:59:57;22.30;97.60
29687;DHT22;16599;47.078;15.536;2022-08-24T17:02:25;22.40;99.70
29687;DHT22;16599;47.078;15.536;2022-08-24T17:04:52;22.50;99.70
29687;DHT22;16599;47.078;15.536;2022-08-24T17:07:22;22.50;99.90
29687;DHT22;16599;47.078;15.536;2022-08-24T17:09:51;22.40;99.90
29687;DHT22;16599;47.078;15.536;2022-08-24T17:12:18;22.30;99.90
29687;DHT22;16599;47.078;15.536;2022-08-24T17:14:46;22.20;99.90
29687;DHT22;16599;47.078;15.536;2022-08-24T17:17:18;22.20;99.90
29687;DHT22;16599;47.078;15.536;2022-08-24T17:19:50;22.00;99.90
29687;DHT22;16599;47.078;15.536;2022-08-24T17:22:38;21.70;99.90
29687;DHT22;16599;47.078;15.536;2022-08-24T17:25:05;21.60;99.90
29687;DHT22;16599;47.078;15.536;2022-08-24T17:27:33;21.60;99.90
29687;DHT22;16599;47.078;15.536;2022-08-24T17:30:02;21.30;99.90
29687;DHT22;16599;47.078;15.536;2022-08-24T17:32:29;21.10;99.90
29687;DHT22;16599;47.078;15.536;2022-08-24T17:34:56;21.10;99.90
29687;DHT22;16599;47.078;15.536;2022-08-24T17:37:23;20.90;99.90
29687;DHT22;16599;47.078;15.536;2022-08-24T17:39:54;20.80;99.90
29687;DHT22;16599;47.078;15.536;2022-08-24T17:42:22;20.90;99.90
29687;DHT22;16599;47.078;15.536;2022-08-24T17:45:09;21.00;99.90
29687;DHT22;16599;47.078;15.536;2022-08-24T17:47:39;21.00;99.90
29687;DHT22;16599;47.078;15.536;2022-08-24T17:50:07;20.90;99.90
29687;DHT22;16599;47.078;15.536;2022-08-24T17:52:36;20.40;99.90
29687;DHT22;16599;47.078;15.536;2022-08-24T17:55:07;20.20;99.90
29687;DHT22;16599;47.078;15.536;2022-08-24T17:57:35;20.40;99.90
29687;DHT22;16599;47.078;15.536;2022-08-24T18:00:04;20.50;99.90
29687;DHT22;16599;47.078;15.536;2022-08-24T18:02:32;20.60;99.90
29687;DHT22;16599;47.078;15.536;2022-08-24T18:05:00;20.40;99.90
29687;DHT22;16599;47.078;15.536;2022-08-24T18:07:27;19.80;99.90
29687;DHT22;16599;47.078;15.536;2022-08-24T18:10:18;19.70;99.90
29687;DHT22;16599;47.078;15.536;2022-08-24T18:12:46;19.90;99.90
29687;DHT22;16599;47.078;15.536;2022-08-24T18:15:13;20.10;99.90
29687;DHT22;16599;47.078;15.536;2022-08-24T18:17:49;20.10;99.90
29687;DHT22;16599;47.078;15.536;2022-08-24T18:20:27;20.10;99.90
29687;DHT22;16599;47.078;15.536;2022-08-24T18:26:47;20.00;99.90
29687;DHT22;16599;47.078;15.536;2022-08-24T18:29:17;19.50;99.90
29687;DHT22;16599;47.078;15.536;2022-08-24T18:31:46;19.40;99.90
29687;DHT22;16599;47.078;15.536;2022-08-24T18:34:19;19.30;99.90
29687;DHT22;16599;47.078;15.536;2022-08-24T18:37:09;19.20;99.90
29687;DHT22;16599;47.078;15.536;2022-08-24T18:46:46;19.50;99.90
29687;DHT22;16599;47.078;15.536;2022-08-24T18:49:15;19.50;99.90
29687;DHT22;16599;47.078;15.536;2022-08-24T18:51:43;19.30;99.90
29687;DHT22;16599;47.078;15.536;2022-08-24T18:54:19;19.00;99.90
29687;DHT22;16599;47.078;15.536;2022-08-24T18:56:47;19.00;99.90
29687;DHT22;16599;47.078;15.536;2022-08-24T18:59:17;19.10;99.90
29687;DHT22;16599;47.078;15.536;2022-08-24T19:01:46;19.10;99.90
29687;DHT22;16599;47.078;15.536;2022-08-24T19:04:39;19.20;99.90
29687;DHT22;16599;47.078;15.536;2022-08-24T19:07:07;19.30;99.90
29687;DHT22;16599;47.078;15.536;2022-08-24T19:10:08;19.40;99.90
29687;DHT22;16599;47.078;15.536;2022-08-24T19:12:38;19.10;99.90
29687;DHT22;16599;47.078;15.536;2022-08-24T19:15:12;18.90;99.90
29687;DHT22;16599;47.078;15.536;2022-08-24T19:17:59;18.90;99.90
29687;DHT22;16599;47.078;15.536;2022-08-24T19:20:26;19.00;99.90
29687;DHT22;16599;47.078;15.536;2022-08-24T19:23:01;19.00;99.90
29687;DHT22;16599;47.078;15.536;2022-08-24T19:25:31;18.70;99.90
29687;DHT22;16599;47.078;15.536;2022-08-24T19:27:58;18.50;99.90
29687;DHT22;16599;47.078;15.536;2022-08-24T19:30:25;18.50;99.90
29687;DHT22;16599;47.078;15.536;2022-08-24T19:32:57;18.60;99.90
29687;DHT22;16599;47.078;15.536;2022-08-24T19:35:25;18.70;99.90
29687;DHT22;16599;47.078;15.536;2022-08-24T19:37:51;18.60;99.90
29687;DHT22;16599;47.078;15.536;2022-08-24T19:40:19;18.70;99.90
29687;DHT22;16599;47.078;15.536;2022-08-24T19:42:48;18.70;99.90
29687;DHT22;16599;47.078;15.536;2022-08-24T19:45:19;18.60;99.90
29687;DHT22;16599;47.078;15.536;2022-08-24T19:48:06;18.40;99.90
29687;DHT22;16599;47.078;15.536;2022-08-24T19:50:33;18.40;99.90
29687;DHT22;16599;47.078;15.536;2022-08-24T19:53:03;18.50;99.90
29687;DHT22;16599;47.078;15.536;2022-08-24T19:55:31;18.40;99.90
29687;DHT22;16599;47.078;15.536;2022-08-24T20:01:09;18.30;99.90
29687;DHT22;16599;47.078;15.536;2022-08-24T20:03:37;18.20;99.90
29687;DHT22;16599;47.078;15.536;2022-08-24T20:06:04;18.20;99.90
29687;DHT22;16599;47.078;15.536;2022-08-24T20:08:31;18.20;99.90
29687;DHT22;16599;47.078;15.536;2022-08-24T20:10:57;18.20;99.90
29687;DHT22;16599;47.078;15.536;2022-08-24T20:13:26;18.20;99.90
29687;DHT22;16599;47.078;15.536;2022-08-24T20:15:54;18.30;99.90
29687;DHT22;16599;47.078;15.536;2022-08-24T20:18:40;18.20;99.90
29687;DHT22;16599;47.078;15.536;2022-08-24T20:21:07;17.90;99.90
29687;DHT22;16599;47.078;15.536;2022-08-24T20:23:34;17.90;99.90
29687;DHT22;16599;47.078;15.536;2022-08-24T20:26:03;17.80;99.90
29687;DHT22;16599;47.078;15.536;2022-08-24T20:28:43;17.90;99.90
29687;DHT22;16599;47.078;15.536;2022-08-24T20:31:14;17.80;99.90
29687;DHT22;16599;47.078;15.536;2022-08-24T20:33:41;17.70;99.90